sensor_id;sensor_type;location;lat;lon;timestamp;P1;durP1;ratioP1;P2;durP2;ratioP2
69081;SDS011;56184;51.986;5.760;2022-12-11T00:00:18;58.97;;;16.90;;
69081;SDS011;56184;51.986;5.760;2022-12-11T00:02:44;59.15;;;17.83;;
69081;SDS011;56184;51.986;5.760;2022-12-11T00:05:09;57.80;;;17.20;;
69081;SDS011;56184;51.986;5.760;2022-12-11T00:07:35;53.78;;;17.90;;
69081;SDS011;56184;51.986;5.760;2022-12-11T00:10:01;52.67;;;17.10;;
69081;SDS011;56184;51.986;5.760;2022-12-11T00:12:28;48.28;;;17.08;;
69081;SDS011;56184;51.986;5.760;2022-12-11T00:14:55;58.25;;;18.63;;
69081;SDS011;56184;51.986;5.760;2022-12-11T00:17:20;55.72;;;17.38;;
69081;SDS011;56184;51.986;5.760;2022-12-11T00:19:46;55.78;;;18.70;;
69081;SDS011;56184;51.986;5.760;2022-12-11T00:22:11;53.20;;;18.42;;
69081;SDS011;56184;51.986;5.760;2022-12-11T00:24:44;56.78;;;18.13;;
69081;SDS011;56184;51.986;5.760;2022-12-11T00:27:10;60.73;;;17.57;;
69081;SDS011;56184;51.986;5.760;2022-12-11T00:29:35;57.45;;;17.60;;
69081;SDS011;56184;51.986;5.760;2022-12-11T00:32:01;54.35;;;17.48;;
69081;SDS011;56184;51.986;5.760;2022-12-11T00:34:27;59.30;;;17.98;;
69081;SDS011;56184;51.986;5.760;2022-12-11T00:36:52;55.88;;;17.52;;
69081;SDS011;56184;51.986;5.760;2022-12-11T00:39:18;55.35;;;17.45;;
69081;SDS011;56184;51.986;5.760;2022-12-11T00:41:43;50.50;;;17.13;;
69081;SDS011;56184;51.986;5.760;2022-12-11T00:44:09;54.05;;;16.38;;
69081;SDS011;56184;51.986;5.760;2022-12-11T00:46:34;50.90;;;16.60;;
69081;SDS011;56184;51.986;5.760;2022-12-11T00:49:00;57.47;;;17.30;;
69081;SDS011;56184;51.986;5.760;2022-12-11T00:51:26;59.92;;;17.95;;
69081;SDS011;56184;51.986;5.760;2022-12-11T00:53:51;55.58;;;17.73;;
69081;SDS011;56184;51.986;5.760;2022-12-11T00:56:18;53.08;;;18.13;;
69081;SDS011;56184;51.986;5.760;2022-12-11T00:58:46;53.03;;;18.05;;
69081;SDS011;56184;51.986;5.760;2022-12-11T01:01:13;57.30;;;17.10;;
69081;SDS011;56184;51.986;5.760;2022-12-11T01:03:43;65.82;;;18.58;;
69081;SDS011;56184;51.986;5.760;2022-12-11T01:06:12;57.30;;;17.08;;
69081;SDS011;56184;51.986;5.760;2022-12-11T01:08:40;49.20;;;17.08;;
69081;SDS011;56184;51.986;5.760;2022-12-11T01:11:07;54.67;;;17.45;;
69081;SDS011;56184;51.986;5.760;2022-12-11T01:13:35;57.08;;;18.92;;
69081;SDS011;56184;51.986;5.760;2022-12-11T01:16:08;51.78;;;16.90;;
69081;SDS011;56184;51.986;5.760;2022-12-11T01:18:36;52.33;;;17.90;;
69081;SDS011;56184;51.986;5.760;2022-12-11T01:21:10;56.13;;;18.55;;
69081;SDS011;56184;51.986;5.760;2022-12-11T01:23:37;56.53;;;18.00;;
69081;SDS011;56184;51.986;5.760;2022-12-11T01:26:04;52.17;;;17.88;;
69081;SDS011;56184;51.986;5.760;2022-12-11T01:28:34;54.03;;;17.70;;
69081;SDS011;56184;51.986;5.760;2022-12-11T01:31:00;58.47;;;17.50;;
69081;SDS011;56184;51.986;5.760;2022-12-11T01:33:25;62.55;;;18.00;;
69081;SDS011;56184;51.986;5.760;2022-12-11T01:35:51;51.78;;;18.00;;
69081;SDS011;56184;51.986;5.760;2022-12-11T01:38:17;51.63;;;17.92;;
69081;SDS011;56184;51.986;5.760;2022-12-11T01:40:48;59.95;;;18.73;;
69081;SDS011;56184;51.986;5.760;2022-12-11T01:43:15;54.67;;;17.17;;
69081;SDS011;56184;51.986;5.760;2022-12-11T01:45:42;66.85;;;18.98;;
69081;SDS011;56184;51.986;5.760;2022-12-11T01:48:11;57.75;;;19.27;;
69081;SDS011;56184;51.986;5.760;2022-12-11T01:50:41;55.60;;;17.25;;
69081;SDS011;56184;51.986;5.760;2022-12-11T01:53:12;54.80;;;18.63;;
69081;SDS011;56184;51.986;5.760;2022-12-11T01:55:42;51.08;;;17.00;;
69081;SDS011;56184;51.986;5.760;2022-12-11T01:58:10;61.63;;;18.50;;
69081;SDS011;56184;51.986;5.760;2022-12-11T02:00:37;63.45;;;18.50;;
69081;SDS011;56184;51.986;5.760;2022-12-11T02:03:02;55.72;;;18.55;;
69081;SDS011;56184;51.986;5.760;2022-12-11T02:05:28;69.03;;;18.00;;
69081;SDS011;56184;51.986;5.760;2022-12-11T02:07:55;56.40;;;17.92;;
69081;SDS011;56184;51.986;5.760;2022-12-11T02:10:23;62.20;;;18.40;;
69081;SDS011;56184;51.986;5.760;2022-12-11T02:13:11;54.63;;;17.58;;
69081;SDS011;56184;51.986;5.760;2022-12-11T02:15:43;71.43;;;18.67;;
69081;SDS011;56184;51.986;5.760;2022-12-11T02:18:45;50.85;;;17.85;;
69081;SDS011;56184;51.986;5.760;2022-12-11T02:21:38;71.38;;;18.33;;
69081;SDS011;56184;51.986;5.760;2022-12-11T02:29:35;60.08;;;17.40;;
69081;SDS011;56184;51.986;5.760;2022-12-11T02:32:08;51.45;;;16.88;;
69081;SDS011;56184;51.986;5.760;2022-12-11T02:34:41;69.00;;;19.15;;
69081;SDS011;56184;51.986;5.760;2022-12-11T02:37:22;63.17;;;19.05;;
69081;SDS011;56184;51.986;5.760;2022-12-11T02:39:54;95.18;;;19.13;;
69081;SDS011;56184;51.986;5.760;2022-12-11T02:42:20;70.63;;;19.10;;
69081;SDS011;56184;51.986;5.760;2022-12-11T02:44:51;67.47;;;18.70;;
69081;SDS011;56184;51.986;5.760;2022-12-11T02:47:18;63.88;;;17.80;;
69081;SDS011;56184;51.986;5.760;2022-12-11T02:49:47;56.53;;;17.50;;
69081;SDS011;56184;51.986;5.760;2022-12-11T02:52:15;56.10;;;17.73;;
69081;SDS011;56184;51.986;5.760;2022-12-11T02:54:48;87.03;;;18.88;;
69081;SDS011;56184;51.986;5.760;2022-12-11T02:57:19;64.90;;;18.20;;
69081;SDS011;56184;51.986;5.760;2022-12-11T03:00:25;74.13;;;19.15;;
69081;SDS011;56184;51.986;5.760;2022-12-11T03:02:57;54.88;;;17.63;;
69081;SDS011;56184;51.986;5.760;2022-12-11T03:05:35;77.38;;;19.38;;
69081;SDS011;56184;51.986;5.760;2022-12-11T03:08:04;65.25;;;19.20;;
69081;SDS011;56184;51.986;5.760;2022-12-11T03:10:30;64.80;;;19.05;;
69081;SDS011;56184;51.986;5.760;2022-12-11T03:13:02;58.35;;;18.95;;
69081;SDS011;56184;51.986;5.760;2022-12-11T03:22:09;62.47;;;19.17;;
69081;SDS011;56184;51.986;5.760;2022-12-11T03:25:02;54.00;;;18.15;;
69081;SDS011;56184;51.986;5.760;2022-12-11T03:27:34;66.43;;;18.45;;
69081;SDS011;56184;51.986;5.760;2022-12-11T03:30:12;66.55;;;19.45;;
69081;SDS011;56184;51.986;5.760;2022-12-11T03:35:18;66.15;;;19.38;;
69081;SDS011;56184;51.986;5.760;2022-12-11T03:37:48;66.05;;;19.27;;
69081;SDS011;56184;51.986;5.760;2022-12-11T03:40:18;68.13;;;19.73;;
69081;SDS011;56184;51.986;5.760;2022-12-11T03:42:46;64.68;;;19.67;;
69081;SDS011;56184;51.986;5.760;2022-12-11T03:45:15;58.97;;;19.40;;
69081;SDS011;56184;51.986;5.760;2022-12-11T03:47:43;60.55;;;19.00;;
69081;SDS011;56184;51.986;5.760;2022-12-11T03:50:10;65.93;;;19.35;;
69081;SDS011;56184;51.986;5.760;2022-12-11T03:52:40;64.45;;;19.55;;
69081;SDS011;56184;51.986;5.760;2022-12-11T03:55:15;64.05;;;19.60;;
69081;SDS011;56184;51.986;5.760;2022-12-11T03:57:43;64.68;;;19.75;;
69081;SDS011;56184;51.986;5.760;2022-12-11T04:00:11;64.32;;;19.77;;
69081;SDS011;56184;51.986;5.760;2022-12-11T04:02:39;60.65;;;19.10;;
69081;SDS011;56184;51.986;5.760;2022-12-11T04:05:06;65.03;;;19.80;;
69081;SDS011;56184;51.986;5.760;2022-12-11T04:07:32;59.05;;;19.17;;
69081;SDS011;56184;51.986;5.760;2022-12-11T04:09:58;63.45;;;19.00;;
69081;SDS011;56184;51.986;5.760;2022-12-11T04:12:24;65.25;;;19.48;;
69081;SDS011;56184;51.986;5.760;2022-12-11T04:14:50;58.38;;;18.00;;
69081;SDS011;56184;51.986;5.760;2022-12-11T04:17:34;59.35;;;19.17;;
69081;SDS011;56184;51.986;5.760;2022-12-11T04:20:19;64.85;;;19.65;;
69081;SDS011;56184;51.986;5.760;2022-12-11T04:23:05;65.30;;;20.05;;
69081;SDS011;56184;51.986;5.760;2022-12-11T04:25:54;65.38;;;20.55;;
69081;SDS011;56184;51.986;5.760;2022-12-11T04:28:32;65.28;;;19.98;;
69081;SDS011;56184;51.986;5.760;2022-12-11T04:30:58;60.85;;;21.15;;
69081;SDS011;56184;51.986;5.760;2022-12-11T04:33:23;53.88;;;19.88;;
69081;SDS011;56184;51.986;5.760;2022-12-11T04:35:49;55.80;;;20.23;;
69081;SDS011;56184;51.986;5.760;2022-12-11T04:38:14;52.88;;;19.60;;
69081;SDS011;56184;51.986;5.760;2022-12-11T04:40:40;51.95;;;19.42;;
69081;SDS011;56184;51.986;5.760;2022-12-11T04:43:06;48.50;;;19.30;;
69081;SDS011;56184;51.986;5.760;2022-12-11T04:45:31;54.38;;;20.40;;
69081;SDS011;56184;51.986;5.760;2022-12-11T04:47:57;50.17;;;18.55;;
69081;SDS011;56184;51.986;5.760;2022-12-11T04:50:23;49.90;;;18.77;;
69081;SDS011;56184;51.986;5.760;2022-12-11T04:52:58;49.25;;;19.65;;
69081;SDS011;56184;51.986;5.760;2022-12-11T04:55:24;51.30;;;19.13;;
69081;SDS011;56184;51.986;5.760;2022-12-11T04:57:49;53.53;;;19.92;;
69081;SDS011;56184;51.986;5.760;2022-12-11T05:00:15;47.55;;;19.35;;
69081;SDS011;56184;51.986;5.760;2022-12-11T05:02:41;47.30;;;18.48;;
69081;SDS011;56184;51.986;5.760;2022-12-11T05:05:08;44.13;;;18.10;;
69081;SDS011;56184;51.986;5.760;2022-12-11T05:07:35;50.63;;;18.77;;
69081;SDS011;56184;51.986;5.760;2022-12-11T05:10:01;53.28;;;19.85;;
69081;SDS011;56184;51.986;5.760;2022-12-11T05:12:28;46.45;;;19.10;;
69081;SDS011;56184;51.986;5.760;2022-12-11T05:14:53;52.25;;;20.75;;
69081;SDS011;56184;51.986;5.760;2022-12-11T05:17:19;53.10;;;20.75;;
69081;SDS011;56184;51.986;5.760;2022-12-11T05:19:49;47.42;;;18.70;;
69081;SDS011;56184;51.986;5.760;2022-12-11T05:22:16;48.42;;;19.05;;
69081;SDS011;56184;51.986;5.760;2022-12-11T05:24:42;48.92;;;19.58;;
69081;SDS011;56184;51.986;5.760;2022-12-11T05:27:07;48.40;;;19.42;;
69081;SDS011;56184;51.986;5.760;2022-12-11T05:29:34;40.28;;;18.15;;
69081;SDS011;56184;51.986;5.760;2022-12-11T05:32:00;36.42;;;16.98;;
69081;SDS011;56184;51.986;5.760;2022-12-11T05:34:25;41.88;;;18.50;;
69081;SDS011;56184;51.986;5.760;2022-12-11T05:36:51;41.88;;;18.80;;
69081;SDS011;56184;51.986;5.760;2022-12-11T05:39:17;39.92;;;17.60;;
69081;SDS011;56184;51.986;5.760;2022-12-11T05:41:42;40.70;;;18.90;;
69081;SDS011;56184;51.986;5.760;2022-12-11T05:44:10;40.13;;;17.92;;
69081;SDS011;56184;51.986;5.760;2022-12-11T05:46:37;37.00;;;17.33;;
69081;SDS011;56184;51.986;5.760;2022-12-11T05:49:08;43.00;;;18.63;;
69081;SDS011;56184;51.986;5.760;2022-12-11T05:51:35;50.03;;;19.30;;
69081;SDS011;56184;51.986;5.760;2022-12-11T05:54:01;42.15;;;17.98;;
69081;SDS011;56184;51.986;5.760;2022-12-11T05:56:28;47.35;;;18.60;;
69081;SDS011;56184;51.986;5.760;2022-12-11T05:58:56;46.33;;;18.65;;
69081;SDS011;56184;51.986;5.760;2022-12-11T06:01:33;47.08;;;19.67;;
69081;SDS011;56184;51.986;5.760;2022-12-11T06:04:03;45.65;;;20.15;;
69081;SDS011;56184;51.986;5.760;2022-12-11T06:06:31;39.35;;;18.52;;
69081;SDS011;56184;51.986;5.760;2022-12-11T06:08:57;43.05;;;20.25;;
69081;SDS011;56184;51.986;5.760;2022-12-11T06:11:24;46.72;;;20.30;;
69081;SDS011;56184;51.986;5.760;2022-12-11T06:13:52;44.65;;;20.52;;
69081;SDS011;56184;51.986;5.760;2022-12-11T06:16:19;40.88;;;19.55;;
69081;SDS011;56184;51.986;5.760;2022-12-11T06:18:45;39.42;;;19.50;;
69081;SDS011;56184;51.986;5.760;2022-12-11T06:21:15;40.30;;;19.10;;
69081;SDS011;56184;51.986;5.760;2022-12-11T06:23:43;34.35;;;17.00;;
69081;SDS011;56184;51.986;5.760;2022-12-11T06:26:10;37.35;;;18.40;;
69081;SDS011;56184;51.986;5.760;2022-12-11T06:28:37;39.47;;;17.58;;
69081;SDS011;56184;51.986;5.760;2022-12-11T06:31:03;38.40;;;18.55;;
69081;SDS011;56184;51.986;5.760;2022-12-11T06:33:30;35.72;;;17.58;;
69081;SDS011;56184;51.986;5.760;2022-12-11T06:35:59;42.00;;;19.65;;
69081;SDS011;56184;51.986;5.760;2022-12-11T06:38:45;35.75;;;18.80;;
69081;SDS011;56184;51.986;5.760;2022-12-11T06:41:11;33.33;;;17.27;;
69081;SDS011;56184;51.986;5.760;2022-12-11T06:43:38;36.97;;;18.10;;
69081;SDS011;56184;51.986;5.760;2022-12-11T06:46:05;34.55;;;18.05;;
69081;SDS011;56184;51.986;5.760;2022-12-11T06:48:32;37.25;;;18.42;;
69081;SDS011;56184;51.986;5.760;2022-12-11T06:50:58;33.78;;;17.48;;
69081;SDS011;56184;51.986;5.760;2022-12-11T06:53:24;32.60;;;16.98;;
69081;SDS011;56184;51.986;5.760;2022-12-11T06:55:49;33.78;;;17.00;;
69081;SDS011;56184;51.986;5.760;2022-12-11T06:58:15;35.50;;;17.25;;
69081;SDS011;56184;51.986;5.760;2022-12-11T07:00:41;34.45;;;17.42;;
69081;SDS011;56184;51.986;5.760;2022-12-11T07:03:08;34.92;;;17.55;;
69081;SDS011;56184;51.986;5.760;2022-12-11T07:05:34;33.15;;;16.95;;
69081;SDS011;56184;51.986;5.760;2022-12-11T07:07:59;30.33;;;16.83;;
69081;SDS011;56184;51.986;5.760;2022-12-11T07:10:26;30.80;;;15.90;;
69081;SDS011;56184;51.986;5.760;2022-12-11T07:12:52;28.92;;;15.60;;
69081;SDS011;56184;51.986;5.760;2022-12-11T07:15:18;32.60;;;17.33;;
69081;SDS011;56184;51.986;5.760;2022-12-11T07:17:44;29.52;;;16.50;;
69081;SDS011;56184;51.986;5.760;2022-12-11T07:20:10;29.60;;;14.48;;
69081;SDS011;56184;51.986;5.760;2022-12-11T07:22:37;31.15;;;15.43;;
69081;SDS011;56184;51.986;5.760;2022-12-11T07:25:24;32.67;;;16.05;;
69081;SDS011;56184;51.986;5.760;2022-12-11T07:27:49;29.95;;;15.95;;
69081;SDS011;56184;51.986;5.760;2022-12-11T07:30:15;33.65;;;15.95;;
69081;SDS011;56184;51.986;5.760;2022-12-11T07:32:40;30.73;;;15.60;;
69081;SDS011;56184;51.986;5.760;2022-12-11T07:35:06;27.27;;;14.38;;
69081;SDS011;56184;51.986;5.760;2022-12-11T07:37:32;28.90;;;14.27;;
69081;SDS011;56184;51.986;5.760;2022-12-11T07:39:58;25.63;;;12.98;;
69081;SDS011;56184;51.986;5.760;2022-12-11T07:42:24;23.90;;;12.85;;
69081;SDS011;56184;51.986;5.760;2022-12-11T07:44:49;23.10;;;12.75;;
69081;SDS011;56184;51.986;5.760;2022-12-11T07:47:15;27.33;;;13.88;;
69081;SDS011;56184;51.986;5.760;2022-12-11T07:49:40;25.83;;;13.85;;
69081;SDS011;56184;51.986;5.760;2022-12-11T07:52:06;26.05;;;13.23;;
69081;SDS011;56184;51.986;5.760;2022-12-11T07:54:33;26.33;;;13.05;;
69081;SDS011;56184;51.986;5.760;2022-12-11T07:56:59;28.17;;;13.52;;
69081;SDS011;56184;51.986;5.760;2022-12-11T07:59:25;24.13;;;12.10;;
69081;SDS011;56184;51.986;5.760;2022-12-11T08:01:50;25.85;;;13.50;;
69081;SDS011;56184;51.986;5.760;2022-12-11T08:04:16;24.35;;;12.63;;
69081;SDS011;56184;51.986;5.760;2022-12-11T08:06:41;23.45;;;12.05;;
69081;SDS011;56184;51.986;5.760;2022-12-11T08:09:08;23.08;;;11.65;;
69081;SDS011;56184;51.986;5.760;2022-12-11T08:11:36;25.83;;;12.02;;
69081;SDS011;56184;51.986;5.760;2022-12-11T08:14:02;21.60;;;11.63;;
69081;SDS011;56184;51.986;5.760;2022-12-11T08:16:29;21.00;;;10.82;;
69081;SDS011;56184;51.986;5.760;2022-12-11T08:18:56;19.20;;;10.23;;
69081;SDS011;56184;51.986;5.760;2022-12-11T08:21:23;24.13;;;10.98;;
69081;SDS011;56184;51.986;5.760;2022-12-11T08:23:50;20.00;;;10.60;;
69081;SDS011;56184;51.986;5.760;2022-12-11T08:26:18;21.63;;;10.88;;
69081;SDS011;56184;51.986;5.760;2022-12-11T08:28:49;20.67;;;10.40;;
69081;SDS011;56184;51.986;5.760;2022-12-11T08:31:15;17.35;;;10.32;;
69081;SDS011;56184;51.986;5.760;2022-12-11T08:33:43;19.48;;;10.20;;
69081;SDS011;56184;51.986;5.760;2022-12-11T08:36:10;19.55;;;10.50;;
69081;SDS011;56184;51.986;5.760;2022-12-11T08:38:38;21.88;;;10.10;;
69081;SDS011;56184;51.986;5.760;2022-12-11T08:41:23;20.65;;;10.70;;
69081;SDS011;56184;51.986;5.760;2022-12-11T08:43:50;24.42;;;9.93;;
69081;SDS011;56184;51.986;5.760;2022-12-11T08:46:19;20.42;;;10.90;;
69081;SDS011;56184;51.986;5.760;2022-12-11T08:48:47;22.60;;;10.63;;
69081;SDS011;56184;51.986;5.760;2022-12-11T08:51:18;22.33;;;10.73;;
69081;SDS011;56184;51.986;5.760;2022-12-11T08:53:46;20.38;;;10.70;;
69081;SDS011;56184;51.986;5.760;2022-12-11T08:56:13;22.10;;;11.35;;
69081;SDS011;56184;51.986;5.760;2022-12-11T08:58:44;21.70;;;11.30;;
69081;SDS011;56184;51.986;5.760;2022-12-11T09:01:23;21.40;;;11.70;;
69081;SDS011;56184;51.986;5.760;2022-12-11T09:06:17;20.50;;;11.15;;
69081;SDS011;56184;51.986;5.760;2022-12-11T09:08:44;21.95;;;11.27;;
69081;SDS011;56184;51.986;5.760;2022-12-11T09:11:18;20.73;;;11.27;;
69081;SDS011;56184;51.986;5.760;2022-12-11T09:13:46;21.67;;;11.57;;
69081;SDS011;56184;51.986;5.760;2022-12-11T09:16:13;22.75;;;12.10;;
69081;SDS011;56184;51.986;5.760;2022-12-11T09:18:41;23.98;;;12.77;;
69081;SDS011;56184;51.986;5.760;2022-12-11T09:21:13;24.25;;;12.35;;
69081;SDS011;56184;51.986;5.760;2022-12-11T09:23:40;21.33;;;12.23;;
69081;SDS011;56184;51.986;5.760;2022-12-11T09:26:07;21.95;;;12.50;;
69081;SDS011;56184;51.986;5.760;2022-12-11T09:28:35;24.20;;;13.18;;
69081;SDS011;56184;51.986;5.760;2022-12-11T09:31:06;22.27;;;11.98;;
69081;SDS011;56184;51.986;5.760;2022-12-11T09:33:37;24.88;;;12.48;;
69081;SDS011;56184;51.986;5.760;2022-12-11T09:36:03;24.40;;;12.63;;
69081;SDS011;56184;51.986;5.760;2022-12-11T09:38:29;23.75;;;12.80;;
69081;SDS011;56184;51.986;5.760;2022-12-11T09:40:56;24.58;;;12.23;;
69081;SDS011;56184;51.986;5.760;2022-12-11T09:43:29;20.20;;;10.35;;
69081;SDS011;56184;51.986;5.760;2022-12-11T09:46:02;23.02;;;11.65;;
69081;SDS011;56184;51.986;5.760;2022-12-11T09:48:29;22.02;;;11.00;;
69081;SDS011;56184;51.986;5.760;2022-12-11T09:51:05;24.48;;;11.90;;
69081;SDS011;56184;51.986;5.760;2022-12-11T09:53:46;19.45;;;10.93;;
69081;SDS011;56184;51.986;5.760;2022-12-11T10:07:32;22.90;;;11.23;;
69081;SDS011;56184;51.986;5.760;2022-12-11T10:10:19;20.40;;;10.45;;
69081;SDS011;56184;51.986;5.760;2022-12-11T10:12:54;20.50;;;10.67;;
69081;SDS011;56184;51.986;5.760;2022-12-11T10:15:41;22.95;;;10.10;;
69081;SDS011;56184;51.986;5.760;2022-12-11T10:18:17;20.90;;;11.02;;
69081;SDS011;56184;51.986;5.760;2022-12-11T10:20:47;18.67;;;10.88;;
69081;SDS011;56184;51.986;5.760;2022-12-11T10:23:16;18.38;;;11.07;;
69081;SDS011;56184;51.986;5.760;2022-12-11T10:25:52;20.25;;;10.20;;
69081;SDS011;56184;51.986;5.760;2022-12-11T10:28:22;22.85;;;11.23;;
69081;SDS011;56184;51.986;5.760;2022-12-11T10:34:00;20.77;;;10.98;;
69081;SDS011;56184;51.986;5.760;2022-12-11T10:36:28;18.83;;;10.50;;
69081;SDS011;56184;51.986;5.760;2022-12-11T10:38:56;18.75;;;10.48;;
69081;SDS011;56184;51.986;5.760;2022-12-11T10:41:23;22.58;;;10.85;;
69081;SDS011;56184;51.986;5.760;2022-12-11T10:49:38;20.90;;;11.40;;
69081;SDS011;56184;51.986;5.760;2022-12-11T10:52:49;20.02;;;11.05;;
69081;SDS011;56184;51.986;5.760;2022-12-11T10:55:00;19.17;;;10.18;;
69081;SDS011;56184;51.986;5.760;2022-12-11T10:57:29;19.92;;;11.05;;
69081;SDS011;56184;51.986;5.760;2022-12-11T10:59:59;22.70;;;12.00;;
69081;SDS011;56184;51.986;5.760;2022-12-11T11:02:35;21.25;;;11.30;;
69081;SDS011;56184;51.986;5.760;2022-12-11T11:07:38;20.15;;;10.57;;
69081;SDS011;56184;51.986;5.760;2022-12-11T11:12:37;18.25;;;10.68;;
69081;SDS011;56184;51.986;5.760;2022-12-11T11:15:09;22.83;;;11.52;;
69081;SDS011;56184;51.986;5.760;2022-12-11T11:17:50;22.73;;;11.13;;
69081;SDS011;56184;51.986;5.760;2022-12-11T11:20:19;20.65;;;11.23;;
69081;SDS011;56184;51.986;5.760;2022-12-11T11:22:57;23.92;;;11.85;;
69081;SDS011;56184;51.986;5.760;2022-12-11T11:25:26;22.05;;;11.40;;
69081;SDS011;56184;51.986;5.760;2022-12-11T11:27:54;19.70;;;11.15;;
69081;SDS011;56184;51.986;5.760;2022-12-11T11:30:27;22.05;;;13.07;;
69081;SDS011;56184;51.986;5.760;2022-12-11T11:32:56;24.30;;;15.20;;
69081;SDS011;56184;51.986;5.760;2022-12-11T11:35:27;27.92;;;15.10;;
69081;SDS011;56184;51.986;5.760;2022-12-11T11:37:59;26.83;;;15.43;;
69081;SDS011;56184;51.986;5.760;2022-12-11T11:40:52;26.67;;;14.35;;
69081;SDS011;56184;51.986;5.760;2022-12-11T11:48:57;19.67;;;10.98;;
69081;SDS011;56184;51.986;5.760;2022-12-11T11:51:37;24.67;;;13.40;;
69081;SDS011;56184;51.986;5.760;2022-12-11T11:57:04;27.00;;;12.60;;
69081;SDS011;56184;51.986;5.760;2022-12-11T11:59:40;23.23;;;13.52;;
69081;SDS011;56184;51.986;5.760;2022-12-11T12:02:15;24.67;;;13.00;;
69081;SDS011;56184;51.986;5.760;2022-12-11T12:04:42;27.27;;;14.40;;
69081;SDS011;56184;51.986;5.760;2022-12-11T12:07:17;25.35;;;14.45;;
69081;SDS011;56184;51.986;5.760;2022-12-11T12:10:08;23.98;;;13.43;;
69081;SDS011;56184;51.986;5.760;2022-12-11T12:15:53;21.55;;;11.88;;
69081;SDS011;56184;51.986;5.760;2022-12-11T12:20:49;21.75;;;11.65;;
69081;SDS011;56184;51.986;5.760;2022-12-11T12:23:27;20.73;;;11.98;;
69081;SDS011;56184;51.986;5.760;2022-12-11T12:26:09;23.80;;;13.13;;
69081;SDS011;56184;51.986;5.760;2022-12-11T12:34:39;21.85;;;11.25;;
69081;SDS011;56184;51.986;5.760;2022-12-11T12:50:56;24.27;;;12.65;;
69081;SDS011;56184;51.986;5.760;2022-12-11T12:53:22;24.42;;;12.45;;
69081;SDS011;56184;51.986;5.760;2022-12-11T12:55:56;25.52;;;12.90;;
69081;SDS011;56184;51.986;5.760;2022-12-11T13:01:21;24.42;;;12.45;;
69081;SDS011;56184;51.986;5.760;2022-12-11T13:04:32;22.88;;;12.00;;
69081;SDS011;56184;51.986;5.760;2022-12-11T13:07:46;28.35;;;13.70;;
69081;SDS011;56184;51.986;5.760;2022-12-11T13:10:32;22.35;;;12.10;;
69081;SDS011;56184;51.986;5.760;2022-12-11T13:22:24;23.30;;;12.18;;
69081;SDS011;56184;51.986;5.760;2022-12-11T13:25:00;25.17;;;13.00;;
69081;SDS011;56184;51.986;5.760;2022-12-11T13:27:40;23.20;;;12.52;;
69081;SDS011;56184;51.986;5.760;2022-12-11T13:32:42;27.67;;;14.68;;
69081;SDS011;56184;51.986;5.760;2022-12-11T13:35:24;24.63;;;12.18;;
69081;SDS011;56184;51.986;5.760;2022-12-11T13:37:50;22.08;;;12.15;;
69081;SDS011;56184;51.986;5.760;2022-12-11T13:43:26;25.77;;;13.88;;
69081;SDS011;56184;51.986;5.760;2022-12-11T13:45:55;26.77;;;13.38;;
69081;SDS011;56184;51.986;5.760;2022-12-11T13:51:51;23.02;;;11.98;;
69081;SDS011;56184;51.986;5.760;2022-12-11T13:54:29;24.15;;;13.18;;
69081;SDS011;56184;51.986;5.760;2022-12-11T14:02:44;23.55;;;12.35;;
69081;SDS011;56184;51.986;5.760;2022-12-11T14:05:25;24.90;;;13.38;;
69081;SDS011;56184;51.986;5.760;2022-12-11T14:08:11;21.25;;;11.75;;
69081;SDS011;56184;51.986;5.760;2022-12-11T14:10:41;22.13;;;11.82;;
69081;SDS011;56184;51.986;5.760;2022-12-11T14:13:24;24.17;;;13.55;;
69081;SDS011;56184;51.986;5.760;2022-12-11T14:15:51;25.02;;;13.15;;
69081;SDS011;56184;51.986;5.760;2022-12-11T14:18:25;28.98;;;14.63;;
69081;SDS011;56184;51.986;5.760;2022-12-11T14:21:05;25.10;;;13.68;;
69081;SDS011;56184;51.986;5.760;2022-12-11T14:26:25;23.35;;;12.48;;
69081;SDS011;56184;51.986;5.760;2022-12-11T14:35:01;23.73;;;12.30;;
69081;SDS011;56184;51.986;5.760;2022-12-11T14:38:01;23.88;;;12.25;;
69081;SDS011;56184;51.986;5.760;2022-12-11T14:41:10;26.63;;;12.40;;
69081;SDS011;56184;51.986;5.760;2022-12-11T14:43:44;24.38;;;12.43;;
69081;SDS011;56184;51.986;5.760;2022-12-11T14:46:17;25.55;;;12.50;;
69081;SDS011;56184;51.986;5.760;2022-12-11T14:48:51;23.02;;;12.35;;
69081;SDS011;56184;51.986;5.760;2022-12-11T14:51:23;27.98;;;12.98;;
69081;SDS011;56184;51.986;5.760;2022-12-11T14:53:52;25.10;;;13.05;;
69081;SDS011;56184;51.986;5.760;2022-12-11T14:56:22;26.08;;;14.32;;
69081;SDS011;56184;51.986;5.760;2022-12-11T14:58:52;26.40;;;13.27;;
69081;SDS011;56184;51.986;5.760;2022-12-11T15:07:26;29.10;;;15.35;;
69081;SDS011;56184;51.986;5.760;2022-12-11T15:09:59;28.90;;;15.10;;
69081;SDS011;56184;51.986;5.760;2022-12-11T15:13:01;26.35;;;14.38;;
69081;SDS011;56184;51.986;5.760;2022-12-11T15:15:36;25.58;;;13.77;;
69081;SDS011;56184;51.986;5.760;2022-12-11T15:18:35;27.13;;;14.23;;
69081;SDS011;56184;51.986;5.760;2022-12-11T15:21:37;28.00;;;14.27;;
69081;SDS011;56184;51.986;5.760;2022-12-11T15:27:04;27.63;;;14.90;;
69081;SDS011;56184;51.986;5.760;2022-12-11T15:37:26;23.85;;;12.80;;
69081;SDS011;56184;51.986;5.760;2022-12-11T15:40:08;27.75;;;14.55;;
69081;SDS011;56184;51.986;5.760;2022-12-11T15:42:36;24.83;;;13.95;;
69081;SDS011;56184;51.986;5.760;2022-12-11T15:50:40;22.08;;;11.68;;
69081;SDS011;56184;51.986;5.760;2022-12-11T15:53:07;23.63;;;12.18;;
69081;SDS011;56184;51.986;5.760;2022-12-11T15:55:45;26.48;;;13.35;;
69081;SDS011;56184;51.986;5.760;2022-12-11T15:58:21;26.40;;;13.77;;
69081;SDS011;56184;51.986;5.760;2022-12-11T16:00:48;21.30;;;12.65;;
69081;SDS011;56184;51.986;5.760;2022-12-11T16:03:20;28.20;;;16.17;;
69081;SDS011;56184;51.986;5.760;2022-12-11T16:05:55;25.38;;;13.18;;
69081;SDS011;56184;51.986;5.760;2022-12-11T16:08:22;26.15;;;13.07;;
69081;SDS011;56184;51.986;5.760;2022-12-11T16:10:49;25.48;;;13.48;;
69081;SDS011;56184;51.986;5.760;2022-12-11T16:13:16;24.40;;;13.52;;
69081;SDS011;56184;51.986;5.760;2022-12-11T16:15:46;22.60;;;12.30;;
69081;SDS011;56184;51.986;5.760;2022-12-11T16:18:14;18.52;;;11.75;;
69081;SDS011;56184;51.986;5.760;2022-12-11T16:20:55;25.25;;;12.57;;
69081;SDS011;56184;51.986;5.760;2022-12-11T16:23:26;22.85;;;12.95;;
69081;SDS011;56184;51.986;5.760;2022-12-11T16:28:59;23.33;;;13.00;;
69081;SDS011;56184;51.986;5.760;2022-12-11T16:31:25;28.00;;;13.20;;
69081;SDS011;56184;51.986;5.760;2022-12-11T16:33:51;25.85;;;14.57;;
69081;SDS011;56184;51.986;5.760;2022-12-11T16:36:17;26.60;;;13.80;;
69081;SDS011;56184;51.986;5.760;2022-12-11T16:38:44;29.48;;;15.52;;
69081;SDS011;56184;51.986;5.760;2022-12-11T16:41:33;28.30;;;14.60;;
69081;SDS011;56184;51.986;5.760;2022-12-11T16:44:08;26.50;;;13.45;;
69081;SDS011;56184;51.986;5.760;2022-12-11T16:46:34;26.13;;;13.43;;
69081;SDS011;56184;51.986;5.760;2022-12-11T16:49:03;29.33;;;13.48;;
69081;SDS011;56184;51.986;5.760;2022-12-11T16:51:31;25.98;;;13.68;;
69081;SDS011;56184;51.986;5.760;2022-12-11T16:54:00;25.95;;;13.73;;
69081;SDS011;56184;51.986;5.760;2022-12-11T16:56:26;24.17;;;13.15;;
69081;SDS011;56184;51.986;5.760;2022-12-11T16:59:13;27.83;;;13.48;;